Terminal Aerodrome Forecast
Issued by NWS

Home | Current Version | Previous Version | Text Only | Print | Product List | Glossary On
Versions: 1 2 3 4 5 6 7 8 9 10 11 12
675
FTUS41 KBTV 221737
TAFMPV
TAF
KMPV 221737Z 2218/2318 00000KT P6SM SCT110
     FM230000 VRB03KT 6SM BR OVC090
     FM230200 16004KT 1 1/2SM BR OVC045
      TEMPO 2302/2306 1/2SM FG OVC002
     FM231100 19008KT 3SM BR OVC010
     FM231300 18009KT P6SM BKN008
     FM231500 18010KT P6SM BKN020
     FM231700 19009KT P6SM SCT030=

USA.gov is the U.S. government's official web portal to all federal, state and local government web resources and services.